Wetterstation Vordersexau
Wetterdaten: Woche 04.09.23 - 10.09.23 (KW36)
Datum Zeit Temp. A. Feuchte A. Luftdruck Regen Wind Richtung Taupunkt Windchill Windben
04.09.2023 00:00 18,8 C 92 % 1020,0 hPa 0,0 l/m 0,0 km/h (0 Bft) N 17,5 C 18,8 C 2,5 km/h (1 Bft)
04.09.2023 01:00 17,3 C 95 % 1020,1 hPa 0,0 l/m 0,0 km/h (0 Bft) N 16,5 C 17,3 C 0,0 km/h (0 Bft)
04.09.2023 02:00 15,9 C 97 % 1020,1 hPa 0,0 l/m 0,0 km/h (0 Bft) W 15,4 C 15,9 C 0,0 km/h (0 Bft)
04.09.2023 03:00 15,9 C 97 % 1020,3 hPa 0,0 l/m 2,5 km/h (1 Bft) N 15,4 C 15,9 C 2,5 km/h (1 Bft)
04.09.2023 04:00 15,7 C 93 % 1019,8 hPa 0,0 l/m 0,0 km/h (0 Bft) N 14,6 C 15,7 C 0,0 km/h (0 Bft)
04.09.2023 05:00 15,0 C 95 % 1019,4 hPa 0,0 l/m 0,0 km/h (0 Bft) N 14,2 C 15,0 C 0,0 km/h (0 Bft)
04.09.2023 06:00 14,5 C 97 % 1018,8 hPa 0,0 l/m 0,0 km/h (0 Bft) NW 14,0 C 14,5 C 0,0 km/h (0 Bft)
04.09.2023 07:00 14,3 C 98 % 1018,8 hPa 0,0 l/m 1,1 km/h (1 Bft) N 14,0 C 14,3 C 2,5 km/h (1 Bft)
04.09.2023 08:00 14,5 C 99 % 1019,4 hPa 0,0 l/m 0,0 km/h (0 Bft) N 14,3 C 14,5 C 0,0 km/h (0 Bft)
04.09.2023 09:00 14,9 C 99 % 1019,6 hPa 0,0 l/m 0,0 km/h (0 Bft) W 14,7 C 14,9 C 0,0 km/h (0 Bft)
04.09.2023 10:00 16,2 C 96 % 1019,6 hPa 0,0 l/m 2,5 km/h (1 Bft) W 15,6 C 16,2 C 3,6 km/h (1 Bft)
04.09.2023 11:00 19,2 C 87 % 1019,1 hPa 0,0 l/m 3,6 km/h (1 Bft) W 17,0 C 19,2 C 6,1 km/h (2 Bft)
04.09.2023 12:00 21,9 C 80 % 1018,8 hPa 0,0 l/m 2,5 km/h (1 Bft) SW 18,3 C 21,9 C 3,6 km/h (1 Bft)
04.09.2023 13:00 23,6 C 73 % 1018,5 hPa 0,0 l/m 3,6 km/h (1 Bft) W-SW 18,5 C 23,6 C 6,1 km/h (2 Bft)
04.09.2023 14:00 25,8 C 67 % 1017,8 hPa 0,0 l/m 2,5 km/h (1 Bft) SW 19,2 C 25,8 C 3,6 km/h (1 Bft)
04.09.2023 15:00 28,4 C 62 % 1016,9 hPa 0,0 l/m 1,1 km/h (1 Bft) W 20,4 C 28,4 C 3,6 km/h (1 Bft)
04.09.2023 16:00 28,5 C 60 % 1016,3 hPa 0,0 l/m 6,1 km/h (2 Bft) W 20,0 C 28,5 C 11,2 km/h (2 Bft)
04.09.2023 17:00 29,1 C 55 % 1015,6 hPa 0,0 l/m 5,0 km/h (1 Bft) W 19,1 C 29,1 C 6,1 km/h (2 Bft)
04.09.2023 18:00 30,0 C 52 % 1015,3 hPa 0,0 l/m 2,5 km/h (1 Bft) W 19,0 C 30,0 C 3,6 km/h (1 Bft)
04.09.2023 19:00 29,6 C 58 % 1014,8 hPa 0,0 l/m 1,1 km/h (1 Bft) W 20,4 C 29,6 C 2,5 km/h (1 Bft)
04.09.2023 20:00 26,7 C 76 % 1014,6 hPa 0,0 l/m 2,5 km/h (1 Bft) O 22,1 C 26,7 C 3,6 km/h (1 Bft)
04.09.2023 21:00 23,2 C 72 % 1014,8 hPa 0,0 l/m 1,1 km/h (1 Bft) N 17,9 C 23,2 C 2,5 km/h (1 Bft)
04.09.2023 22:00 19,2 C 84 % 1015,0 hPa 0,0 l/m 0,0 km/h (0 Bft) N 16,4 C 19,2 C 2,5 km/h (1 Bft)
04.09.2023 23:00 18,5 C 83 % 1015,1 hPa 0,0 l/m 0,0 km/h (0 Bft) NO 15,6 C 18,5 C 2,5 km/h (1 Bft)
05.09.2023 00:00 18,6 C 78 % 1015,0 hPa 0,0 l/m 3,6 km/h (1 Bft) NO 14,7 C 18,6 C 3,6 km/h (1 Bft)
05.09.2023 01:00 16,5 C 83 % 1014,5 hPa 0,0 l/m 0,0 km/h (0 Bft) O 13,6 C 16,5 C 2,5 km/h (1 Bft)
05.09.2023 02:00 15,2 C 88 % 1014,4 hPa 0,0 l/m 3,6 km/h (1 Bft) N 13,2 C 15,2 C 3,6 km/h (1 Bft)
05.09.2023 03:00 16,0 C 82 % 1014,3 hPa 0,0 l/m 0,0 km/h (0 Bft) N 12,9 C 16,0 C 0,0 km/h (0 Bft)
05.09.2023 04:00 15,7 C 82 % 1014,2 hPa 0,0 l/m 0,0 km/h (0 Bft) W 12,6 C 15,7 C 0,0 km/h (0 Bft)
05.09.2023 05:00 14,5 C 87 % 1014,4 hPa 0,0 l/m 3,6 km/h (1 Bft) N-NW 12,4 C 14,5 C 3,6 km/h (1 Bft)
05.09.2023 06:00 13,8 C 90 % 1014,6 hPa 0,0 l/m 1,1 km/h (1 Bft) NO 12,2 C 13,8 C 2,5 km/h (1 Bft)
05.09.2023 07:00 13,1 C 91 % 1015,4 hPa 0,0 l/m 1,1 km/h (1 Bft) NO 11,7 C 13,1 C 2,5 km/h (1 Bft)
05.09.2023 08:00 12,7 C 92 % 1015,9 hPa 0,0 l/m 1,1 km/h (1 Bft) N 11,4 C 12,7 C 3,6 km/h (1 Bft)
05.09.2023 09:00 15,6 C 85 % 1015,8 hPa 0,0 l/m 0,0 km/h (0 Bft) N 13,1 C 15,6 C 0,0 km/h (0 Bft)
05.09.2023 10:00 19,8 C 76 % 1016,0 hPa 0,0 l/m 0,0 km/h (0 Bft) NW 15,4 C 19,8 C 0,0 km/h (0 Bft)
05.09.2023 11:00 22,3 C 71 % 1015,7 hPa 0,0 l/m 2,5 km/h (1 Bft) W-SW 16,8 C 22,3 C 3,6 km/h (1 Bft)
05.09.2023 12:00 24,3 C 62 % 1015,4 hPa 0,0 l/m 1,1 km/h (1 Bft) W 16,5 C 24,3 C 3,6 km/h (1 Bft)
05.09.2023 13:00 25,4 C 55 % 1015,1 hPa 0,0 l/m 5,0 km/h (1 Bft) W 15,7 C 25,4 C 7,2 km/h (2 Bft)
05.09.2023 14:00 27,2 C 52 % 1014,5 hPa 0,0 l/m 1,1 km/h (1 Bft) W 16,5 C 27,2 C 3,6 km/h (1 Bft)
05.09.2023 15:00 28,8 C 55 % 1013,7 hPa 0,0 l/m 3,6 km/h (1 Bft) NW 18,8 C 28,8 C 9,7 km/h (2 Bft)
05.09.2023 16:00 29,5 C 52 % 1013,2 hPa 0,0 l/m 5,0 km/h (1 Bft) NW 18,6 C 29,5 C 9,7 km/h (2 Bft)
05.09.2023 17:00 30,2 C 51 % 1012,4 hPa 0,0 l/m 3,6 km/h (1 Bft) W 18,9 C 30,2 C 7,2 km/h (2 Bft)
05.09.2023 18:00 29,4 C 55 % 1012,0 hPa 0,0 l/m 7,2 km/h (2 Bft) W 19,4 C 29,3 C 11,2 km/h (2 Bft)
05.09.2023 19:00 29,4 C 63 % 1012,1 hPa 0,0 l/m 1,1 km/h (1 Bft) N 21,6 C 29,4 C 2,5 km/h (1 Bft)
05.09.2023 20:00 26,6 C 68 % 1012,2 hPa 0,0 l/m 0,0 km/h (0 Bft) NW 20,2 C 26,6 C 0,0 km/h (0 Bft)
05.09.2023 21:00 22,3 C 76 % 1012,7 hPa 0,0 l/m 1,1 km/h (1 Bft) O-SO 17,9 C 22,3 C 2,5 km/h (1 Bft)
05.09.2023 22:00 21,1 C 71 % 1013,5 hPa 0,0 l/m 5,0 km/h (1 Bft) N 15,6 C 21,1 C 6,1 km/h (2 Bft)
05.09.2023 23:00 19,8 C 74 % 1013,8 hPa 0,0 l/m 0,0 km/h (0 Bft) N 15,0 C 19,8 C 0,0 km/h (0 Bft)
06.09.2023 00:00 18,0 C 81 % 1013,8 hPa 0,0 l/m 0,0 km/h (0 Bft) N 14,7 C 18,0 C 0,0 km/h (0 Bft)
06.09.2023 01:00 16,7 C 85 % 1013,8 hPa 0,0 l/m 0,0 km/h (0 Bft) O-NO 14,2 C 16,7 C 2,5 km/h (1 Bft)
06.09.2023 02:00 15,6 C 86 % 1014,0 hPa 0,0 l/m 1,1 km/h (1 Bft) O-NO 13,3 C 15,6 C 3,6 km/h (1 Bft)
06.09.2023 03:00 15,4 C 85 % 1014,0 hPa 0,0 l/m 1,1 km/h (1 Bft) N 12,9 C 15,4 C 2,5 km/h (1 Bft)
06.09.2023 04:00 15,9 C 82 % 1014,0 hPa 0,0 l/m 0,0 km/h (0 Bft) N 12,8 C 15,9 C 2,5 km/h (1 Bft)
06.09.2023 05:00 14,8 C 85 % 1014,1 hPa 0,0 l/m 0,0 km/h (0 Bft) O-NO 12,3 C 14,8 C 0,0 km/h (0 Bft)
06.09.2023 06:00 13,6 C 90 % 1014,4 hPa 0,0 l/m 1,1 km/h (1 Bft) O-NO 12,0 C 13,6 C 3,6 km/h (1 Bft)
06.09.2023 07:00 13,2 C 90 % 1014,8 hPa 0,0 l/m 1,1 km/h (1 Bft) O-NO 11,6 C 13,2 C 2,5 km/h (1 Bft)
06.09.2023 08:00 12,9 C 91 % 1015,1 hPa 0,0 l/m 1,1 km/h (1 Bft) N 11,5 C 12,9 C 2,5 km/h (1 Bft)
06.09.2023 09:00 14,9 C 84 % 1015,1 hPa 0,0 l/m 0,0 km/h (0 Bft) O-SO 12,2 C 14,9 C 2,5 km/h (1 Bft)
06.09.2023 10:00 19,0 C 71 % 1015,3 hPa 0,0 l/m 1,1 km/h (1 Bft) O-NO 13,6 C 19,0 C 3,6 km/h (1 Bft)
06.09.2023 11:00 21,5 C 65 % 1015,4 hPa 0,0 l/m 1,1 km/h (1 Bft) W 14,6 C 21,5 C 2,5 km/h (1 Bft)
06.09.2023 12:00 22,8 C 66 % 1015,2 hPa 0,0 l/m 2,5 km/h (1 Bft) W-SW 16,1 C 22,8 C 3,6 km/h (1 Bft)
06.09.2023 13:00 24,4 C 55 % 1014,7 hPa 0,0 l/m 2,5 km/h (1 Bft) W 14,8 C 24,4 C 3,6 km/h (1 Bft)
06.09.2023 14:00 26,7 C 57 % 1014,5 hPa 0,0 l/m 2,5 km/h (1 Bft) W 17,5 C 26,7 C 6,1 km/h (2 Bft)
06.09.2023 15:00 27,5 C 58 % 1013,7 hPa 0,0 l/m 5,0 km/h (1 Bft) N-NO 18,5 C 27,5 C 7,2 km/h (2 Bft)
06.09.2023 16:00 27,9 C 57 % 1013,3 hPa 0,0 l/m 2,5 km/h (1 Bft) W 18,6 C 27,9 C 3,6 km/h (1 Bft)
06.09.2023 17:00 28,5 C 57 % 1012,9 hPa 0,0 l/m 6,1 km/h (2 Bft) W-NW 19,1 C 28,5 C 7,2 km/h (2 Bft)
06.09.2023 18:00 28,8 C 56 % 1012,7 hPa 0,0 l/m 5,0 km/h (1 Bft) NW 19,1 C 28,8 C 6,1 km/h (2 Bft)
06.09.2023 19:00 28,4 C 55 % 1012,7 hPa 0,0 l/m 1,1 km/h (1 Bft) N 18,5 C 28,4 C 2,5 km/h (1 Bft)
06.09.2023 20:00 25,9 C 69 % 1013,0 hPa 0,0 l/m 0,0 km/h (0 Bft) N-NO 19,8 C 25,9 C 0,0 km/h (0 Bft)
06.09.2023 21:00 22,0 C 83 % 1013,1 hPa 0,0 l/m 2,5 km/h (1 Bft) N 19,0 C 22,0 C 3,6 km/h (1 Bft)
06.09.2023 22:00 20,3 C 87 % 1013,5 hPa 0,0 l/m 0,0 km/h (0 Bft) O-SO 18,1 C 20,3 C 2,5 km/h (1 Bft)
06.09.2023 23:00 19,2 C 90 % 1013,6 hPa 0,0 l/m 3,6 km/h (1 Bft) N 17,5 C 19,2 C 6,1 km/h (2 Bft)
07.09.2023 00:00 18,6 C 89 % 1013,6 hPa 0,0 l/m 0,0 km/h (0 Bft) SO 16,7 C 18,6 C 0,0 km/h (0 Bft)
07.09.2023 01:00 18,3 C 87 % 1013,7 hPa 0,0 l/m 1,1 km/h (1 Bft) NO 16,1 C 18,3 C 2,5 km/h (1 Bft)
07.09.2023 02:00 18,1 C 84 % 1013,6 hPa 0,0 l/m 1,1 km/h (1 Bft) O-SO 15,4 C 18,1 C 3,6 km/h (1 Bft)
07.09.2023 03:00 17,1 C 89 % 1013,8 hPa 0,0 l/m 1,1 km/h (1 Bft) O-SO 15,3 C 17,1 C 2,5 km/h (1 Bft)
07.09.2023 04:00 15,6 C 92 % 1013,7 hPa 0,0 l/m 2,5 km/h (1 Bft) N 14,3 C 15,6 C 3,6 km/h (1 Bft)
07.09.2023 05:00 15,5 C 91 % 1013,5 hPa 0,0 l/m 0,0 km/h (0 Bft) O-NO 14,0 C 15,5 C 0,0 km/h (0 Bft)
07.09.2023 06:00 14,8 C 93 % 1013,4 hPa 0,0 l/m 1,1 km/h (1 Bft) O-NO 13,7 C 14,8 C 2,5 km/h (1 Bft)
07.09.2023 07:00 14,1 C 95 % 1013,8 hPa 0,0 l/m 1,1 km/h (1 Bft) O-NO 13,3 C 14,1 C 2,5 km/h (1 Bft)
07.09.2023 08:00 14,2 C 94 % 1013,9 hPa 0,0 l/m 1,1 km/h (1 Bft) N 13,2 C 14,2 C 2,5 km/h (1 Bft)
07.09.2023 09:00 16,5 C 87 % 1014,0 hPa 0,0 l/m 0,0 km/h (0 Bft) N 14,3 C 16,5 C 0,0 km/h (0 Bft)
07.09.2023 10:00 20,3 C 77 % 1014,4 hPa 0,0 l/m 0,0 km/h (0 Bft) O-NO 16,1 C 20,3 C 2,5 km/h (1 Bft)
07.09.2023 11:00 22,6 C 68 % 1014,2 hPa 0,0 l/m 1,1 km/h (1 Bft) W-SW 16,4 C 22,6 C 2,5 km/h (1 Bft)
07.09.2023 12:00 24,6 C 67 % 1014,2 hPa 0,0 l/m 3,6 km/h (1 Bft) SW 18,1 C 24,6 C 6,1 km/h (2 Bft)
07.09.2023 13:00 25,8 C 62 % 1013,8 hPa 0,0 l/m 2,5 km/h (1 Bft) W-SW 18,0 C 25,8 C 3,6 km/h (1 Bft)
07.09.2023 14:00 26,8 C 63 % 1013,3 hPa 0,0 l/m 3,6 km/h (1 Bft) W 19,1 C 26,8 C 6,1 km/h (2 Bft)
07.09.2023 15:00 29,2 C 57 % 1013,0 hPa 0,0 l/m 3,6 km/h (1 Bft) W 19,8 C 29,2 C 6,1 km/h (2 Bft)
07.09.2023 16:00 29,5 C 57 % 1012,4 hPa 0,0 l/m 5,0 km/h (1 Bft) W 20,1 C 29,5 C 9,7 km/h (2 Bft)
07.09.2023 17:00 30,1 C 53 % 1012,3 hPa 0,0 l/m 6,1 km/h (2 Bft) W 19,4 C 30,1 C 9,7 km/h (2 Bft)
07.09.2023 18:00 29,3 C 54 % 1012,2 hPa 0,0 l/m 8,6 km/h (2 Bft) W-NW 19,0 C 29,1 C 11,2 km/h (2 Bft)
07.09.2023 19:00 29,3 C 58 % 1012,1 hPa 0,0 l/m 3,6 km/h (1 Bft) W 20,2 C 29,3 C 3,6 km/h (1 Bft)
07.09.2023 20:00 26,3 C 66 % 1012,3 hPa 0,0 l/m 2,5 km/h (1 Bft) W 19,4 C 26,3 C 3,6 km/h (1 Bft)
07.09.2023 21:00 23,0 C 79 % 1012,7 hPa 0,0 l/m 1,1 km/h (1 Bft) N 19,2 C 23,0 C 2,5 km/h (1 Bft)
07.09.2023 22:00 21,3 C 87 % 1012,9 hPa 0,0 l/m 0,0 km/h (0 Bft) W 19,0 C 21,3 C 0,0 km/h (0 Bft)
07.09.2023 23:00 20,1 C 90 % 1013,2 hPa 0,0 l/m 2,5 km/h (1 Bft) O-NO 18,4 C 20,1 C 2,5 km/h (1 Bft)
08.09.2023 00:00 19,6 C 92 % 1013,2 hPa 0,0 l/m 1,1 km/h (1 Bft) O-NO 18,3 C 19,6 C 2,5 km/h (1 Bft)
08.09.2023 01:00 18,7 C 94 % 1013,1 hPa 0,0 l/m 0,0 km/h (0 Bft) N 17,7 C 18,7 C 0,0 km/h (0 Bft)
08.09.2023 02:00 18,3 C 94 % 1013,0 hPa 0,0 l/m 0,0 km/h (0 Bft) O-NO 17,3 C 18,3 C 0,0 km/h (0 Bft)
08.09.2023 03:00 17,9 C 94 % 1013,1 hPa 0,0 l/m 1,1 km/h (1 Bft) N 16,9 C 17,9 C 2,5 km/h (1 Bft)
08.09.2023 04:00 17,1 C 96 % 1013,2 hPa 0,0 l/m 0,0 km/h (0 Bft) N 16,5 C 17,1 C 0,0 km/h (0 Bft)
08.09.2023 05:00 16,9 C 96 % 1013,0 hPa 0,0 l/m 0,0 km/h (0 Bft) O-SO 16,3 C 16,9 C 0,0 km/h (0 Bft)
08.09.2023 06:00 16,8 C 97 % 1013,2 hPa 0,0 l/m 1,1 km/h (1 Bft) N 16,3 C 16,8 C 3,6 km/h (1 Bft)
08.09.2023 07:00 16,7 C 97 % 1013,1 hPa 0,0 l/m 0,0 km/h (0 Bft) N 16,2 C 16,7 C 0,0 km/h (0 Bft)
08.09.2023 08:00 16,7 C 98 % 1013,6 hPa 0,0 l/m 0,0 km/h (0 Bft) O 16,4 C 16,7 C 0,0 km/h (0 Bft)
08.09.2023 09:00 18,2 C 94 % 1013,6 hPa 0,0 l/m 2,5 km/h (1 Bft) O-SO 17,2 C 18,2 C 3,6 km/h (1 Bft)
08.09.2023 10:00 22,1 C 82 % 1013,7 hPa 0,0 l/m 3,6 km/h (1 Bft) W 18,9 C 22,1 C 3,6 km/h (1 Bft)
08.09.2023 11:00 24,2 C 74 % 1013,8 hPa 0,0 l/m 2,5 km/h (1 Bft) NO 19,3 C 24,2 C 3,6 km/h (1 Bft)
08.09.2023 12:00 26,5 C 68 % 1013,6 hPa 0,0 l/m 2,5 km/h (1 Bft) W-NW 20,1 C 26,5 C 6,1 km/h (2 Bft)
08.09.2023 13:00 28,4 C 63 % 1013,3 hPa 0,0 l/m 2,5 km/h (1 Bft) NO 20,7 C 28,4 C 3,6 km/h (1 Bft)
08.09.2023 14:00 28,9 C 56 % 1012,8 hPa 0,0 l/m 5,0 km/h (1 Bft) W 19,2 C 28,9 C 6,1 km/h (2 Bft)
08.09.2023 15:00 30,8 C 50 % 1012,7 hPa 0,0 l/m 3,6 km/h (1 Bft) O-SO 19,1 C 30,8 C 6,1 km/h (2 Bft)
08.09.2023 16:00 31,5 C 44 % 1012,1 hPa 0,0 l/m 1,1 km/h (1 Bft) NO 17,7 C 31,5 C 3,6 km/h (1 Bft)
08.09.2023 17:00 32,0 C 44 % 1011,8 hPa 0,0 l/m 1,1 km/h (1 Bft) O-NO 18,2 C 32,0 C 2,5 km/h (1 Bft)
08.09.2023 18:00 31,2 C 42 % 1011,6 hPa 0,0 l/m 5,0 km/h (1 Bft) O-NO 16,7 C 31,2 C 7,2 km/h (2 Bft)
08.09.2023 19:00 30,8 C 45 % 1011,5 hPa 0,0 l/m 2,5 km/h (1 Bft) N 17,5 C 30,8 C 3,6 km/h (1 Bft)
08.09.2023 20:00 27,9 C 58 % 1011,5 hPa 0,0 l/m 0,0 km/h (0 Bft) N 18,9 C 27,9 C 2,5 km/h (1 Bft)
08.09.2023 21:00 23,9 C 70 % 1011,9 hPa 0,0 l/m 0,0 km/h (0 Bft) O-SO 18,1 C 23,9 C 0,0 km/h (0 Bft)
08.09.2023 22:00 22,0 C 77 % 1012,4 hPa 0,0 l/m 2,5 km/h (1 Bft) N 17,8 C 22,0 C 6,1 km/h (2 Bft)
08.09.2023 23:00 20,7 C 81 % 1012,3 hPa 0,0 l/m 0,0 km/h (0 Bft) N 17,3 C 20,7 C 0,0 km/h (0 Bft)
09.09.2023 00:00 20,1 C 82 % 1012,4 hPa 0,0 l/m 0,0 km/h (0 Bft) O-NO 16,9 C 20,1 C 2,5 km/h (1 Bft)
09.09.2023 01:00 18,8 C 86 % 1012,2 hPa 0,0 l/m 1,1 km/h (1 Bft) N 16,4 C 18,8 C 2,5 km/h (1 Bft)
09.09.2023 02:00 18,7 C 86 % 1012,0 hPa 0,0 l/m 0,0 km/h (0 Bft) O-NO 16,3 C 18,7 C 2,5 km/h (1 Bft)
09.09.2023 03:00 17,5 C 91 % 1012,0 hPa 0,0 l/m 2,5 km/h (1 Bft) N 16,0 C 17,5 C 3,6 km/h (1 Bft)
09.09.2023 04:00 17,8 C 90 % 1011,9 hPa 0,0 l/m 0,0 km/h (0 Bft) N 16,1 C 17,8 C 0,0 km/h (0 Bft)
09.09.2023 05:00 16,9 C 93 % 1012,2 hPa 0,0 l/m 0,0 km/h (0 Bft) N 15,8 C 16,9 C 0,0 km/h (0 Bft)
09.09.2023 06:00 16,6 C 94 % 1012,1 hPa 0,0 l/m 0,0 km/h (0 Bft) N 15,6 C 16,6 C 2,5 km/h (1 Bft)
09.09.2023 07:00 16,0 C 96 % 1012,1 hPa 0,0 l/m 0,0 km/h (0 Bft) N 15,4 C 16,0 C 0,0 km/h (0 Bft)
09.09.2023 08:00 15,8 C 97 % 1012,4 hPa 0,0 l/m 0,0 km/h (0 Bft) N 15,3 C 15,8 C 0,0 km/h (0 Bft)
09.09.2023 09:00 17,8 C 93 % 1013,0 hPa 0,0 l/m 0,0 km/h (0 Bft) O-SO 16,7 C 17,8 C 2,5 km/h (1 Bft)
09.09.2023 10:00 21,9 C 80 % 1013,1 hPa 0,0 l/m 3,6 km/h (1 Bft) O-SO 18,3 C 21,9 C 6,1 km/h (2 Bft)
09.09.2023 11:00 25,4 C 67 % 1013,1 hPa 0,0 l/m 1,1 km/h (1 Bft) W 18,8 C 25,4 C 3,6 km/h (1 Bft)
09.09.2023 12:00 26,4 C 67 % 1012,7 hPa 0,0 l/m 5,0 km/h (1 Bft) W 19,8 C 26,4 C 7,2 km/h (2 Bft)
09.09.2023 13:00 28,4 C 60 % 1012,6 hPa 0,0 l/m 3,6 km/h (1 Bft) W-NW 19,9 C 28,4 C 6,1 km/h (2 Bft)
09.09.2023 14:00 29,7 C 52 % 1012,2 hPa 0,0 l/m 5,0 km/h (1 Bft) W-NW 18,8 C 29,7 C 7,2 km/h (2 Bft)
09.09.2023 15:00 31,5 C 49 % 1012,0 hPa 0,0 l/m 2,5 km/h (1 Bft) W 19,5 C 31,5 C 3,6 km/h (1 Bft)
09.09.2023 16:00 32,1 C 47 % 1011,7 hPa 0,0 l/m 3,6 km/h (1 Bft) SW 19,3 C 32,1 C 6,1 km/h (2 Bft)
09.09.2023 17:00 31,0 C 49 % 1011,5 hPa 0,0 l/m 3,6 km/h (1 Bft) W-NW 19,0 C 31,0 C 3,6 km/h (1 Bft)
09.09.2023 18:00 31,9 C 41 % 1011,5 hPa 0,0 l/m 3,6 km/h (1 Bft) NO 17,0 C 31,9 C 7,2 km/h (2 Bft)
09.09.2023 19:00 30,8 C 51 % 1011,3 hPa 0,0 l/m 2,5 km/h (1 Bft) N 19,5 C 30,8 C 3,6 km/h (1 Bft)
09.09.2023 20:00 29,6 C 55 % 1011,5 hPa 0,0 l/m 0,0 km/h (0 Bft) N 19,6 C 29,6 C 0,0 km/h (0 Bft)
09.09.2023 21:00 25,0 C 72 % 1012,0 hPa 0,0 l/m 0,0 km/h (0 Bft) O-SO 19,6 C 25,0 C 0,0 km/h (0 Bft)
09.09.2023 22:00 23,0 C 77 % 1012,3 hPa 0,0 l/m 3,6 km/h (1 Bft) O-SO 18,7 C 23,0 C 6,1 km/h (2 Bft)
09.09.2023 23:00 22,2 C 80 % 1012,5 hPa 0,0 l/m 3,6 km/h (1 Bft) N 18,6 C 22,2 C 6,1 km/h (2 Bft)
10.09.2023 00:00 21,9 C 80 % 1012,6 hPa 0,0 l/m 0,0 km/h (0 Bft) O-NO 18,3 C 21,9 C 2,5 km/h (1 Bft)
10.09.2023 01:00 21,2 C 82 % 1012,5 hPa 0,0 l/m 1,1 km/h (1 Bft) O-NO 18,0 C 21,2 C 3,6 km/h (1 Bft)
10.09.2023 02:00 19,3 C 90 % 1012,8 hPa 0,0 l/m 1,1 km/h (1 Bft) O-NO 17,6 C 19,3 C 2,5 km/h (1 Bft)
10.09.2023 03:00 18,8 C 91 % 1012,8 hPa 0,0 l/m 1,1 km/h (1 Bft) O-NO 17,3 C 18,8 C 2,5 km/h (1 Bft)
10.09.2023 04:00 18,2 C 92 % 1012,9 hPa 0,0 l/m 1,1 km/h (1 Bft) O-NO 16,9 C 18,2 C 2,5 km/h (1 Bft)
10.09.2023 05:00 17,3 C 94 % 1012,6 hPa 0,0 l/m 1,1 km/h (1 Bft) N 16,3 C 17,3 C 2,5 km/h (1 Bft)
10.09.2023 06:00 17,1 C 95 % 1013,1 hPa 0,0 l/m 0,0 km/h (0 Bft) N 16,3 C 17,1 C 0,0 km/h (0 Bft)
10.09.2023 07:00 16,4 C 96 % 1013,2 hPa 0,0 l/m 0,0 km/h (0 Bft) N 15,8 C 16,4 C 0,0 km/h (0 Bft)
10.09.2023 08:00 16,4 C 96 % 1013,3 hPa 0,0 l/m 0,0 km/h (0 Bft) O-NO 15,8 C 16,4 C 0,0 km/h (0 Bft)
10.09.2023 09:00 18,0 C 94 % 1013,5 hPa 0,0 l/m 2,5 km/h (1 Bft) N 17,0 C 18,0 C 2,5 km/h (1 Bft)
10.09.2023 10:00 22,2 C 79 % 1013,7 hPa 0,0 l/m 0,0 km/h (0 Bft) W 18,4 C 22,2 C 0,0 km/h (0 Bft)
10.09.2023 11:00 23,6 C 76 % 1013,8 hPa 0,0 l/m 1,1 km/h (1 Bft) W 19,1 C 23,6 C 3,6 km/h (1 Bft)
10.09.2023 12:00 25,8 C 69 % 1013,6 hPa 0,0 l/m 2,5 km/h (1 Bft) W-SW 19,7 C 25,8 C 3,6 km/h (1 Bft)
10.09.2023 13:00 27,0 C 69 % 1013,1 hPa 0,0 l/m 1,1 km/h (1 Bft) NW 20,8 C 27,0 C 2,5 km/h (1 Bft)
10.09.2023 14:00 29,6 C 56 % 1012,8 hPa 0,0 l/m 2,5 km/h (1 Bft) W 19,9 C 29,6 C 6,1 km/h (2 Bft)
10.09.2023 15:00 30,3 C 52 % 1012,5 hPa 0,0 l/m 1,1 km/h (1 Bft) N-NO 19,3 C 30,3 C 3,6 km/h (1 Bft)
10.09.2023 16:00 31,6 C 43 % 1012,0 hPa 0,0 l/m 1,1 km/h (1 Bft) N-NW 17,5 C 31,6 C 3,6 km/h (1 Bft)
10.09.2023 17:00 31,9 C 43 % 1011,5 hPa 0,0 l/m 2,5 km/h (1 Bft) W 17,7 C 31,9 C 3,6 km/h (1 Bft)
10.09.2023 18:00 31,1 C 50 % 1011,2 hPa 0,0 l/m 3,6 km/h (1 Bft) N 19,4 C 31,1 C 3,6 km/h (1 Bft)
10.09.2023 19:00 31,0 C 47 % 1010,9 hPa 0,0 l/m 0,0 km/h (0 Bft) N 18,3 C 31,0 C 2,5 km/h (1 Bft)
10.09.2023 20:00 27,5 C 62 % 1010,9 hPa 0,0 l/m 0,0 km/h (0 Bft) N 19,6 C 27,5 C 2,5 km/h (1 Bft)
10.09.2023 21:00 23,3 C 74 % 1011,4 hPa 0,0 l/m 0,0 km/h (0 Bft) N 18,4 C 23,3 C 0,0 km/h (0 Bft)
10.09.2023 22:00 21,8 C 79 % 1011,7 hPa 0,0 l/m 0,0 km/h (0 Bft) O 18,0 C 21,8 C 2,5 km/h (1 Bft)
10.09.2023 23:00 20,8 C 82 % 1011,7 hPa 0,0 l/m 1,1 km/h (1 Bft) N 17,6 C 20,8 C 2,5 km/h (1 Bft)
Min-Datum _ 05.09.23 09.09.23 10.09.23 - 04.09.23 - 05.09.23 05.09.23 04.09.23
_ Min-Zeit 08:21 18:21 19:21 - 00:21 - 08:21 08:21 01:21
Minimum _ 12,7 C 41 % 1010,9 hPa - 0,0 km/h (0 Bft) - 11,4 C 12,7 C 0,0 km/h (0 Bft)
Max-Datum _ 09.09.23 04.09.23 04.09.23 04.09.23 07.09.23 - 04.09.23 09.09.23 04.09.23
_ Max-Zeit 16:21 08:21 03:21 00:21 18:21 - 20:21 16:21 16:21
Maximum _ 32,1 C 99 % 1020,3 hPa 0,0 l/m 8,6 km/h
W-NW (2 Bft)
- 22,1 C 32,1 C 11,2 km/h
W (2 Bft)
Durchschnitt _ 22,0 C 75 % 1013,8 hPa #0,0 l/m 1,7 km/h (1 Bft) W 17,0 C 22,0 C 3,2 km/h (1 Bft)
www.sexauwetter.de